sensor_id;sensor_type;location;lat;lon;timestamp;P1;P2;P0
66149;PMS5003;52952;50.904;20.648;2022-07-24T00:00:19;31;29;19
66149;PMS5003;52952;50.904;20.648;2022-07-24T00:07:15;37;33;21
66149;PMS5003;52952;50.904;20.648;2022-07-24T00:14:18;37;33;21
66149;PMS5003;52952;50.904;20.648;2022-07-24T00:21:08;37;33;21
66149;PMS5003;52952;50.904;20.648;2022-07-24T00:28:17;37;33;21
66149;PMS5003;52952;50.904;20.648;2022-07-24T00:42:07;40;35;20
66149;PMS5003;52952;50.904;20.648;2022-07-24T00:49:19;40;35;20
66149;PMS5003;52952;50.904;20.648;2022-07-24T00:56:14;40;35;20
66149;PMS5003;52952;50.904;20.648;2022-07-24T01:00:25;40;35;20
66149;PMS5003;52952;50.904;20.648;2022-07-24T01:07:14;42;34;21
66149;PMS5003;52952;50.904;20.648;2022-07-24T01:14:19;42;34;21
66149;PMS5003;52952;50.904;20.648;2022-07-24T01:21:08;42;34;21
66149;PMS5003;52952;50.904;20.648;2022-07-24T01:28:03;42;34;21
66149;PMS5003;52952;50.904;20.648;2022-07-24T01:35:19;43;38;23
66149;PMS5003;52952;50.904;20.648;2022-07-24T01:42:17;43;38;23
66149;PMS5003;52952;50.904;20.648;2022-07-24T01:49:22;43;38;23
66149;PMS5003;52952;50.904;20.648;2022-07-24T01:56:03;43;38;23
66149;PMS5003;52952;50.904;20.648;2022-07-24T02:00:26;43;38;23
66149;PMS5003;52952;50.904;20.648;2022-07-24T02:07:18;45;39;23
66149;PMS5003;52952;50.904;20.648;2022-07-24T02:14:08;45;39;23
66149;PMS5003;52952;50.904;20.648;2022-07-24T02:21:03;45;39;23
66149;PMS5003;52952;50.904;20.648;2022-07-24T02:28:05;45;39;23
66149;PMS5003;52952;50.904;20.648;2022-07-24T02:35:04;49;41;25
66149;PMS5003;52952;50.904;20.648;2022-07-24T02:42:14;49;41;25
66149;PMS5003;52952;50.904;20.648;2022-07-24T02:49:20;49;41;25
66149;PMS5003;52952;50.904;20.648;2022-07-24T02:56:04;49;41;25
66149;PMS5003;52952;50.904;20.648;2022-07-24T03:00:29;49;41;25
66149;PMS5003;52952;50.904;20.648;2022-07-24T03:07:06;44;37;23
66149;PMS5003;52952;50.904;20.648;2022-07-24T03:14:02;44;37;23
66149;PMS5003;52952;50.904;20.648;2022-07-24T03:21:05;44;37;23
66149;PMS5003;52952;50.904;20.648;2022-07-24T03:28:16;44;37;23
66149;PMS5003;52952;50.904;20.648;2022-07-24T03:35:20;39;35;22
66149;PMS5003;52952;50.904;20.648;2022-07-24T03:42:04;39;35;22
66149;PMS5003;52952;50.904;20.648;2022-07-24T03:49:02;39;35;22
66149;PMS5003;52952;50.904;20.648;2022-07-24T03:56:09;39;35;22
66149;PMS5003;52952;50.904;20.648;2022-07-24T04:00:14;39;35;22
66149;PMS5003;52952;50.904;20.648;2022-07-24T04:07:04;34;32;20
66149;PMS5003;52952;50.904;20.648;2022-07-24T04:14:04;34;32;20
66149;PMS5003;52952;50.904;20.648;2022-07-24T04:21:15;34;32;20
66149;PMS5003;52952;50.904;20.648;2022-07-24T04:28:18;34;32;20
66149;PMS5003;52952;50.904;20.648;2022-07-24T04:35:17;32;31;20
66149;PMS5003;52952;50.904;20.648;2022-07-24T04:42:02;32;31;20
66149;PMS5003;52952;50.904;20.648;2022-07-24T04:49:21;32;31;20
66149;PMS5003;52952;50.904;20.648;2022-07-24T04:56:08;32;31;20
66149;PMS5003;52952;50.904;20.648;2022-07-24T05:00:29;32;31;20
66149;PMS5003;52952;50.904;20.648;2022-07-24T05:07:16;16;16;11
66149;PMS5003;52952;50.904;20.648;2022-07-24T05:14:16;16;16;11
66149;PMS5003;52952;50.904;20.648;2022-07-24T05:21:04;16;16;11
66149;PMS5003;52952;50.904;20.648;2022-07-24T05:28:19;16;16;11
66149;PMS5003;52952;50.904;20.648;2022-07-24T05:35:07;12;10;8
66149;PMS5003;52952;50.904;20.648;2022-07-24T05:42:17;12;10;8
66149;PMS5003;52952;50.904;20.648;2022-07-24T05:49:03;12;10;8
66149;PMS5003;52952;50.904;20.648;2022-07-24T05:56:16;12;10;8
66149;PMS5003;52952;50.904;20.648;2022-07-24T06:00:06;12;10;8
66149;PMS5003;52952;50.904;20.648;2022-07-24T06:07:18;11;10;7
66149;PMS5003;52952;50.904;20.648;2022-07-24T06:14:02;11;10;7
66149;PMS5003;52952;50.904;20.648;2022-07-24T06:21:17;11;10;7
66149;PMS5003;52952;50.904;20.648;2022-07-24T06:28:02;11;10;7
66149;PMS5003;52952;50.904;20.648;2022-07-24T06:35:19;6;6;5
66149;PMS5003;52952;50.904;20.648;2022-07-24T06:42:16;6;6;5
66149;PMS5003;52952;50.904;20.648;2022-07-24T06:49:23;6;6;5
66149;PMS5003;52952;50.904;20.648;2022-07-24T06:56:03;6;6;5
66149;PMS5003;52952;50.904;20.648;2022-07-24T07:00:15;6;6;5
66149;PMS5003;52952;50.904;20.648;2022-07-24T07:07:05;9;9;8
66149;PMS5003;52952;50.904;20.648;2022-07-24T07:14:17;9;9;8
66149;PMS5003;52952;50.904;20.648;2022-07-24T07:21:07;9;9;8
66149;PMS5003;52952;50.904;20.648;2022-07-24T07:28:13;9;9;8
66149;PMS5003;52952;50.904;20.648;2022-07-24T07:35:18;10;10;7
66149;PMS5003;52952;50.904;20.648;2022-07-24T07:42:03;10;10;7
66149;PMS5003;52952;50.904;20.648;2022-07-24T07:49:04;10;10;7
66149;PMS5003;52952;50.904;20.648;2022-07-24T07:56:16;10;10;7
66149;PMS5003;52952;50.904;20.648;2022-07-24T08:00:08;10;10;7
66149;PMS5003;52952;50.904;20.648;2022-07-24T08:07:14;8;8;7
66149;PMS5003;52952;50.904;20.648;2022-07-24T08:14:13;8;8;7
66149;PMS5003;52952;50.904;20.648;2022-07-24T08:21:18;8;8;7
66149;PMS5003;52952;50.904;20.648;2022-07-24T08:28:18;8;8;7
66149;PMS5003;52952;50.904;20.648;2022-07-24T08:42:03;10;9;7
66149;PMS5003;52952;50.904;20.648;2022-07-24T08:49:03;10;9;7
66149;PMS5003;52952;50.904;20.648;2022-07-24T08:56:05;10;9;7
66149;PMS5003;52952;50.904;20.648;2022-07-24T09:00:12;10;9;7
66149;PMS5003;52952;50.904;20.648;2022-07-24T09:14:48;9;9;7
66149;PMS5003;52952;50.904;20.648;2022-07-24T09:21:20;9;9;7
66149;PMS5003;52952;50.904;20.648;2022-07-24T09:28:04;9;9;7
66149;PMS5003;52952;50.904;20.648;2022-07-24T09:35:14;9;9;7
66149;PMS5003;52952;50.904;20.648;2022-07-24T09:42:14;8;7;5
66149;PMS5003;52952;50.904;20.648;2022-07-24T09:49:29;8;7;5
66149;PMS5003;52952;50.904;20.648;2022-07-24T09:56:22;8;7;5
66149;PMS5003;52952;50.904;20.648;2022-07-24T10:00:08;8;7;5
66149;PMS5003;52952;50.904;20.648;2022-07-24T10:14:02;8;8;7
66149;PMS5003;52952;50.904;20.648;2022-07-24T10:21:07;8;8;7
66149;PMS5003;52952;50.904;20.648;2022-07-24T10:28:15;8;8;7
66149;PMS5003;52952;50.904;20.648;2022-07-24T10:42:08;8;8;6
66149;PMS5003;52952;50.904;20.648;2022-07-24T10:49:03;8;8;6
66149;PMS5003;52952;50.904;20.648;2022-07-24T10:56:24;8;8;6
66149;PMS5003;52952;50.904;20.648;2022-07-24T11:00:43;8;8;6
66149;PMS5003;52952;50.904;20.648;2022-07-24T11:14:05;7;6;4
66149;PMS5003;52952;50.904;20.648;2022-07-24T11:21:26;7;6;4
66149;PMS5003;52952;50.904;20.648;2022-07-24T11:28:13;7;6;4
66149;PMS5003;52952;50.904;20.648;2022-07-24T11:42:14;6;6;5
66149;PMS5003;52952;50.904;20.648;2022-07-24T11:49:20;6;6;5
66149;PMS5003;52952;50.904;20.648;2022-07-24T11:56:18;6;6;5
66149;PMS5003;52952;50.904;20.648;2022-07-24T12:00:17;6;6;5
66149;PMS5003;52952;50.904;20.648;2022-07-24T12:14:26;6;6;5
66149;PMS5003;52952;50.904;20.648;2022-07-24T12:21:21;6;6;5
66149;PMS5003;52952;50.904;20.648;2022-07-24T12:28:09;6;6;5
66149;PMS5003;52952;50.904;20.648;2022-07-24T12:35:13;6;6;5
66149;PMS5003;52952;50.904;20.648;2022-07-24T12:42:32;6;5;5
66149;PMS5003;52952;50.904;20.648;2022-07-24T12:49:47;6;5;5
66149;PMS5003;52952;50.904;20.648;2022-07-24T12:56:17;6;5;5
66149;PMS5003;52952;50.904;20.648;2022-07-24T13:00:15;6;5;5
66149;PMS5003;52952;50.904;20.648;2022-07-24T13:14:13;5;5;4
66149;PMS5003;52952;50.904;20.648;2022-07-24T13:21:04;5;5;4
66149;PMS5003;52952;50.904;20.648;2022-07-24T13:28:05;5;5;4
66149;PMS5003;52952;50.904;20.648;2022-07-24T13:35:17;5;5;4
66149;PMS5003;52952;50.904;20.648;2022-07-24T13:42:18;5;5;4
66149;PMS5003;52952;50.904;20.648;2022-07-24T13:49:17;5;5;4
66149;PMS5003;52952;50.904;20.648;2022-07-24T13:56:12;5;5;4
66149;PMS5003;52952;50.904;20.648;2022-07-24T14:00:01;5;5;4
66149;PMS5003;52952;50.904;20.648;2022-07-24T14:07:04;5;5;4
66149;PMS5003;52952;50.904;20.648;2022-07-24T14:14:07;11;10;8
66149;PMS5003;52952;50.904;20.648;2022-07-24T14:21:02;11;10;8
66149;PMS5003;52952;50.904;20.648;2022-07-24T14:28:26;11;10;8
66149;PMS5003;52952;50.904;20.648;2022-07-24T14:35:20;11;10;8
66149;PMS5003;52952;50.904;20.648;2022-07-24T14:42:17;8;8;6
66149;PMS5003;52952;50.904;20.648;2022-07-24T14:49:22;8;8;6
66149;PMS5003;52952;50.904;20.648;2022-07-24T14:56:13;8;8;6
66149;PMS5003;52952;50.904;20.648;2022-07-24T15:00:00;8;8;6
66149;PMS5003;52952;50.904;20.648;2022-07-24T15:07:22;8;8;6
66149;PMS5003;52952;50.904;20.648;2022-07-24T15:14:16;6;6;5
66149;PMS5003;52952;50.904;20.648;2022-07-24T15:21:18;6;6;5
66149;PMS5003;52952;50.904;20.648;2022-07-24T15:28:01;6;6;5
66149;PMS5003;52952;50.904;20.648;2022-07-24T15:42:05;16;16;12
66149;PMS5003;52952;50.904;20.648;2022-07-24T15:49:18;16;16;12
66149;PMS5003;52952;50.904;20.648;2022-07-24T15:56:14;16;16;12
66149;PMS5003;52952;50.904;20.648;2022-07-24T16:00:09;16;16;12
66149;PMS5003;52952;50.904;20.648;2022-07-24T16:07:02;16;16;12
66149;PMS5003;52952;50.904;20.648;2022-07-24T16:14:16;6;6;5
66149;PMS5003;52952;50.904;20.648;2022-07-24T16:21:05;6;6;5
66149;PMS5003;52952;50.904;20.648;2022-07-24T16:28:15;6;6;5
66149;PMS5003;52952;50.904;20.648;2022-07-24T16:35:15;6;6;5
66149;PMS5003;52952;50.904;20.648;2022-07-24T16:42:02;6;6;5
66149;PMS5003;52952;50.904;20.648;2022-07-24T16:49:05;6;6;5
66149;PMS5003;52952;50.904;20.648;2022-07-24T16:56:13;6;6;5
66149;PMS5003;52952;50.904;20.648;2022-07-24T17:00:20;6;6;5
66149;PMS5003;52952;50.904;20.648;2022-07-24T17:07:02;6;6;5
66149;PMS5003;52952;50.904;20.648;2022-07-24T17:21:05;10;9;8
66149;PMS5003;52952;50.904;20.648;2022-07-24T17:28:03;10;9;8
66149;PMS5003;52952;50.904;20.648;2022-07-24T17:35:17;10;9;8
66149;PMS5003;52952;50.904;20.648;2022-07-24T17:49:04;6;6;5
66149;PMS5003;52952;50.904;20.648;2022-07-24T17:56:04;6;6;5
66149;PMS5003;52952;50.904;20.648;2022-07-24T18:00:25;6;6;5
66149;PMS5003;52952;50.904;20.648;2022-07-24T18:07:03;6;6;5
66149;PMS5003;52952;50.904;20.648;2022-07-24T18:21:05;6;6;5
66149;PMS5003;52952;50.904;20.648;2022-07-24T18:28:17;6;6;5
66149;PMS5003;52952;50.904;20.648;2022-07-24T18:35:07;6;6;5
66149;PMS5003;52952;50.904;20.648;2022-07-24T18:49:28;8;8;6
66149;PMS5003;52952;50.904;20.648;2022-07-24T18:56:19;8;8;6
66149;PMS5003;52952;50.904;20.648;2022-07-24T19:00:17;8;8;6
66149;PMS5003;52952;50.904;20.648;2022-07-24T19:07:23;8;8;6
66149;PMS5003;52952;50.904;20.648;2022-07-24T19:21:19;7;6;6
66149;PMS5003;52952;50.904;20.648;2022-07-24T19:28:13;7;6;6
66149;PMS5003;52952;50.904;20.648;2022-07-24T19:35:19;7;6;6
66149;PMS5003;52952;50.904;20.648;2022-07-24T19:49:19;7;7;6
66149;PMS5003;52952;50.904;20.648;2022-07-24T19:56:02;7;7;6
66149;PMS5003;52952;50.904;20.648;2022-07-24T20:00:02;7;7;6
66149;PMS5003;52952;50.904;20.648;2022-07-24T20:07:18;7;7;6
66149;PMS5003;52952;50.904;20.648;2022-07-24T20:21:14;13;13;10
66149;PMS5003;52952;50.904;20.648;2022-07-24T20:28:04;13;13;10
66149;PMS5003;52952;50.904;20.648;2022-07-24T20:35:17;13;13;10
66149;PMS5003;52952;50.904;20.648;2022-07-24T20:49:03;13;13;10
66149;PMS5003;52952;50.904;20.648;2022-07-24T20:56:17;13;13;10
66149;PMS5003;52952;50.904;20.648;2022-07-24T21:00:12;13;13;10
66149;PMS5003;52952;50.904;20.648;2022-07-24T21:07:02;13;13;10
66149;PMS5003;52952;50.904;20.648;2022-07-24T21:21:02;18;15;11
66149;PMS5003;52952;50.904;20.648;2022-07-24T21:28:16;18;15;11
66149;PMS5003;52952;50.904;20.648;2022-07-24T21:35:17;18;15;11
66149;PMS5003;52952;50.904;20.648;2022-07-24T21:49:04;16;15;12
66149;PMS5003;52952;50.904;20.648;2022-07-24T21:56:03;16;15;12
66149;PMS5003;52952;50.904;20.648;2022-07-24T22:00:02;16;15;12
66149;PMS5003;52952;50.904;20.648;2022-07-24T22:07:04;16;15;12
66149;PMS5003;52952;50.904;20.648;2022-07-24T22:14:02;13;13;11
66149;PMS5003;52952;50.904;20.648;2022-07-24T22:21:03;13;13;11
66149;PMS5003;52952;50.904;20.648;2022-07-24T22:28:04;13;13;11
66149;PMS5003;52952;50.904;20.648;2022-07-24T22:35:14;13;13;9
66149;PMS5003;52952;50.904;20.648;2022-07-24T22:42:14;13;13;9
66149;PMS5003;52952;50.904;20.648;2022-07-24T22:49:26;13;13;9
66149;PMS5003;52952;50.904;20.648;2022-07-24T22:56:17;13;13;9
66149;PMS5003;52952;50.904;20.648;2022-07-24T23:07:16;13;13;10
66149;PMS5003;52952;50.904;20.648;2022-07-24T23:14:15;13;13;10
66149;PMS5003;52952;50.904;20.648;2022-07-24T23:21:03;13;13;10
66149;PMS5003;52952;50.904;20.648;2022-07-24T23:28:15;13;13;10
66149;PMS5003;52952;50.904;20.648;2022-07-24T23:35:08;12;12;9
66149;PMS5003;52952;50.904;20.648;2022-07-24T23:42:07;12;12;9
66149;PMS5003;52952;50.904;20.648;2022-07-24T23:49:20;12;12;9
66149;PMS5003;52952;50.904;20.648;2022-07-24T23:56:14;12;12;9
